createdAt,value
2022-10-04T00:00:42.836Z,79.65
2022-10-04T00:02:16.740Z,79.64
2022-10-04T00:03:32.838Z,80.11
2022-10-04T00:04:42.938Z,79.64
2022-10-04T00:05:49.800Z,79.58
2022-10-04T00:06:58.547Z,79.52
2022-10-04T00:08:21.404Z,79.52
2022-10-04T00:09:33.994Z,79.53
2022-10-04T00:10:38.691Z,79.51
2022-10-04T00:11:45.449Z,79.98
2022-10-04T00:12:59.696Z,79.96
2022-10-04T00:14:07.360Z,79.75
2022-10-04T00:15:39.952Z,79.53
2022-10-04T00:16:44.220Z,79.41
2022-10-04T00:18:00.724Z,79.73
2022-10-04T00:19:15.469Z,79.62
2022-10-04T00:20:40.242Z,79.56
2022-10-04T00:21:56.503Z,79.73
2022-10-04T00:23:18.149Z,79.64
2022-10-04T00:24:31.374Z,79.90
2022-10-04T00:25:36.452Z,79.64
2022-10-04T00:26:39.459Z,79.94
2022-10-04T00:28:02.629Z,79.98
2022-10-04T00:29:45.109Z,80.45
2022-10-04T00:31:03.171Z,80.55
2022-10-04T00:32:12.256Z,80.73
2022-10-04T00:33:34.260Z,80.49
2022-10-04T00:34:50.694Z,80.41
2022-10-04T00:35:53.741Z,80.24
2022-10-04T00:36:57.350Z,80.43
2022-10-04T00:38:06.433Z,80.49
2022-10-04T00:39:09.405Z,80.21
2022-10-04T00:40:16.975Z,80.22
2022-10-04T00:41:20.774Z,79.93
2022-10-04T00:42:35.521Z,80.09
2022-10-04T00:43:43.347Z,80.05
2022-10-04T00:44:49.381Z,80.00
2022-10-04T00:45:54.788Z,79.68
2022-10-04T00:47:01.158Z,79.87
2022-10-04T00:48:19.452Z,79.62
2022-10-04T00:49:25.294Z,79.82
2022-10-04T00:50:33.284Z,79.55
2022-10-04T00:51:41.060Z,79.63
2022-10-04T00:52:48.119Z,79.55
2022-10-04T00:53:55.196Z,79.97
2022-10-04T00:55:00.529Z,79.67
2022-10-04T00:56:05.453Z,79.34
2022-10-04T00:57:13.158Z,79.42
2022-10-04T00:58:23.101Z,79.56
2022-10-04T00:59:43.380Z,79.75
2022-10-04T01:00:47.911Z,79.55
2022-10-04T01:01:55.017Z,79.48
2022-10-04T01:03:06.612Z,79.92
2022-10-04T01:04:23.375Z,79.44
2022-10-04T01:05:31.940Z,79.52
2022-10-04T01:06:36.649Z,79.93
2022-10-04T01:07:46.771Z,79.88
2022-10-04T01:08:51.607Z,79.85
2022-10-04T01:09:57.890Z,79.69
2022-10-04T01:11:08.887Z,79.80
2022-10-04T01:12:24.296Z,80.07
2022-10-04T01:13:45.716Z,80.18
2022-10-04T01:15:07.860Z,79.92
2022-10-04T01:16:14.688Z,79.84
2022-10-04T01:17:17.831Z,80.15
2022-10-04T01:18:20.857Z,80.09
2022-10-04T01:19:26.865Z,80.20
2022-10-04T01:20:34.633Z,80.18
2022-10-04T01:21:38.464Z,80.23
2022-10-04T01:22:43.039Z,80.28
2022-10-04T01:23:45.984Z,80.42
2022-10-04T01:24:49.671Z,80.37
2022-10-04T01:25:52.869Z,80.19
2022-10-04T01:26:56.061Z,80.27
2022-10-04T01:27:59.272Z,80.09
2022-10-04T01:29:05.669Z,80.07
2022-10-04T01:30:13.691Z,80.44
2022-10-04T01:31:16.976Z,80.33
2022-10-04T01:32:20.135Z,80.17
2022-10-04T01:33:25.314Z,80.03
2022-10-04T01:34:29.496Z,80.01
2022-10-04T01:35:34.114Z,80.10
2022-10-04T01:36:37.348Z,80.00
2022-10-04T01:37:40.813Z,80.29
2022-10-04T01:38:44.141Z,80.23
2022-10-04T01:39:47.464Z,80.25
2022-10-04T01:40:56.939Z,80.53
2022-10-04T01:42:09.797Z,80.53
2022-10-04T01:43:14.780Z,80.36
2022-10-04T01:44:27.935Z,80.38
2022-10-04T01:45:35.317Z,80.23
2022-10-04T01:46:40.272Z,80.24
2022-10-04T01:47:55.042Z,80.25
2022-10-04T01:49:01.037Z,80.36
2022-10-04T01:50:11.384Z,80.24
2022-10-04T01:51:24.882Z,80.17
2022-10-04T01:52:33.359Z,80.04
2022-10-04T01:53:43.229Z,80.24
2022-10-04T01:54:49.363Z,80.45
2022-10-04T01:55:54.795Z,80.58
2022-10-04T01:57:06.891Z,80.75
2022-10-04T01:58:13.650Z,80.73
2022-10-04T01:59:25.844Z,80.85
2022-10-04T02:00:29.224Z,80.56
2022-10-04T02:01:40.597Z,80.48
2022-10-04T02:02:49.599Z,80.66
2022-10-04T02:03:54.880Z,80.83
2022-10-04T02:04:59.712Z,80.61
2022-10-04T02:06:04.987Z,80.80
2022-10-04T02:07:15.614Z,80.66
2022-10-04T02:08:23.281Z,80.86
2022-10-04T02:09:30.048Z,80.90
2022-10-04T02:10:34.199Z,80.78
2022-10-04T02:11:39.640Z,80.88
2022-10-04T02:12:45.274Z,80.87
2022-10-04T02:13:53.311Z,81.46
2022-10-04T02:14:58.399Z,81.34
2022-10-04T02:16:03.218Z,81.00
2022-10-04T02:17:10.768Z,81.21
2022-10-04T02:18:15.616Z,81.27
2022-10-04T02:19:19.773Z,81.58
2022-10-04T02:20:26.036Z,81.47
2022-10-04T02:21:30.987Z,81.36
2022-10-04T02:22:34.219Z,81.47
2022-10-04T02:23:38.072Z,81.49
2022-10-04T02:24:43.237Z,81.55
2022-10-04T02:25:46.312Z,81.48
2022-10-04T02:26:51.939Z,81.38
2022-10-04T02:27:55.421Z,81.28
2022-10-04T02:28:58.970Z,81.42
2022-10-04T02:30:03.860Z,81.81
2022-10-04T02:31:26.750Z,81.65
2022-10-04T02:32:49.738Z,81.80
2022-10-04T02:33:56.368Z,82.05
2022-10-04T02:34:59.673Z,82.09
2022-10-04T02:36:02.806Z,81.81
2022-10-04T02:37:05.981Z,82.06
2022-10-04T02:38:13.353Z,81.79
2022-10-04T02:39:24.600Z,81.72
2022-10-04T02:40:30.709Z,82.03
2022-10-04T02:41:44.989Z,82.00
2022-10-04T02:42:59.822Z,81.91
2022-10-04T02:44:09.333Z,81.89
2022-10-04T02:45:25.180Z,81.97
2022-10-04T02:46:43.455Z,81.99
2022-10-04T02:48:09.630Z,81.91
2022-10-04T02:49:25.767Z,81.78
2022-10-04T02:50:39.212Z,81.79
2022-10-04T02:51:58.730Z,81.82
2022-10-04T02:53:11.681Z,82.01
2022-10-04T02:54:30.160Z,81.84
2022-10-04T02:55:33.694Z,81.98
2022-10-04T02:56:40.274Z,82.31
2022-10-04T02:57:43.903Z,81.88
2022-10-04T02:58:47.259Z,81.94
2022-10-04T02:59:51.114Z,82.01
2022-10-04T03:00:59.272Z,81.87
2022-10-04T03:02:02.548Z,81.98
2022-10-04T03:03:16.847Z,81.91
2022-10-04T03:04:28.149Z,81.91
2022-10-04T03:05:31.200Z,81.77
2022-10-04T03:06:35.549Z,81.62
2022-10-04T03:07:39.170Z,81.58
2022-10-04T03:08:45.139Z,81.57
2022-10-04T03:09:48.629Z,81.48
2022-10-04T03:10:52.074Z,81.45
2022-10-04T03:11:58.099Z,81.36
2022-10-04T03:13:02.503Z,81.34
2022-10-04T03:14:18.817Z,81.21
2022-10-04T03:15:24.158Z,81.17
2022-10-04T03:16:28.090Z,81.07
2022-10-04T03:17:31.439Z,81.14
2022-10-04T03:18:36.624Z,81.10
2022-10-04T03:19:40.503Z,80.95
2022-10-04T03:20:44.592Z,80.87
2022-10-04T03:21:49.635Z,80.88
2022-10-04T03:22:58.957Z,80.72
2022-10-04T03:24:06.723Z,80.63
2022-10-04T03:25:17.621Z,80.79
2022-10-04T03:26:33.646Z,80.64
2022-10-04T03:27:38.368Z,80.50
2022-10-04T03:28:43.209Z,80.51
2022-10-04T03:29:47.769Z,80.36
2022-10-04T03:30:55.153Z,80.49
2022-10-04T03:32:01.978Z,80.45
2022-10-04T03:33:06.421Z,80.46
2022-10-04T03:34:30.221Z,80.36
2022-10-04T03:35:35.505Z,80.39
2022-10-04T03:36:40.053Z,80.36
2022-10-04T03:37:43.462Z,80.33
2022-10-04T03:38:47.697Z,80.29
2022-10-04T03:39:52.666Z,80.13
2022-10-04T03:40:57.854Z,80.18
2022-10-04T03:42:13.060Z,80.29
2022-10-04T03:43:16.299Z,80.25
2022-10-04T03:44:19.789Z,80.15
2022-10-04T03:45:23.806Z,80.16
2022-10-04T03:46:28.565Z,80.10
2022-10-04T03:47:35.695Z,80.09
2022-10-04T03:48:41.454Z,79.99
2022-10-04T03:49:50.012Z,79.83
2022-10-04T03:50:54.234Z,79.67
2022-10-04T03:51:58.564Z,79.37
2022-10-04T03:53:06.030Z,79.50
2022-10-04T03:54:11.739Z,79.50
2022-10-04T03:55:16.419Z,79.28
2022-10-04T03:56:22.485Z,79.44
2022-10-04T03:57:25.615Z,79.31
2022-10-04T03:58:30.898Z,79.31
2022-10-04T03:59:35.252Z,79.09
2022-10-04T04:00:45.120Z,79.26
2022-10-04T04:01:50.925Z,79.25
2022-10-04T04:02:58.967Z,79.29
2022-10-04T04:04:13.094Z,79.32
2022-10-04T04:05:34.549Z,79.21
2022-10-04T04:06:58.775Z,79.21
2022-10-04T04:08:04.729Z,79.29
2022-10-04T04:09:08.965Z,79.31
2022-10-04T04:10:30.164Z,79.21
2022-10-04T04:11:34.174Z,79.57
2022-10-04T04:12:40.179Z,79.22
2022-10-04T04:14:01.315Z,79.43
2022-10-04T04:15:07.399Z,79.49
2022-10-04T04:16:11.728Z,79.59
2022-10-04T04:17:19.386Z,79.76
2022-10-04T04:18:24.274Z,80.11
2022-10-04T04:19:28.413Z,79.78
2022-10-04T04:20:33.308Z,79.71
2022-10-04T04:21:36.484Z,79.37
2022-10-04T04:22:46.798Z,79.33
2022-10-04T04:24:13.012Z,79.24
2022-10-04T04:25:19.715Z,79.40
2022-10-04T04:26:52.155Z,79.30
2022-10-04T04:28:02.182Z,79.18
2022-10-04T04:29:11.638Z,79.25
2022-10-04T04:30:17.069Z,79.27
2022-10-04T04:31:25.629Z,79.30
2022-10-04T04:32:33.880Z,79.42
2022-10-04T04:33:49.561Z,79.37
2022-10-04T04:35:10.445Z,79.48
2022-10-04T04:36:15.249Z,79.32
2022-10-04T04:37:18.943Z,79.36
2022-10-04T04:38:23.616Z,79.32
2022-10-04T04:39:44.104Z,79.27
2022-10-04T04:40:47.216Z,79.19
2022-10-04T04:41:50.889Z,79.28
2022-10-04T04:43:01.025Z,79.51
2022-10-04T04:44:10.381Z,79.28
2022-10-04T04:45:19.395Z,79.37
2022-10-04T04:46:27.882Z,79.59
2022-10-04T04:47:40.910Z,79.28
2022-10-04T04:48:48.791Z,79.14
2022-10-04T04:49:53.171Z,79.09
2022-10-04T04:50:58.369Z,78.79
2022-10-04T04:52:01.794Z,78.99
2022-10-04T04:53:04.953Z,78.92
2022-10-04T04:54:11.154Z,78.98
2022-10-04T04:55:56.723Z,78.73
2022-10-04T04:57:01.365Z,78.78
2022-10-04T04:58:05.056Z,78.71
2022-10-04T04:59:08.411Z,78.70
2022-10-04T05:00:17.818Z,78.74
2022-10-04T05:01:26.071Z,78.64
2022-10-04T05:02:35.300Z,78.68
2022-10-04T05:03:38.722Z,78.70
2022-10-04T05:04:41.776Z,78.65
2022-10-04T05:05:48.333Z,78.63
2022-10-04T05:07:02.754Z,78.75
2022-10-04T05:08:12.141Z,78.86
2022-10-04T05:09:44.806Z,78.73
2022-10-04T05:10:50.870Z,78.62
2022-10-04T05:11:55.964Z,78.63
2022-10-04T05:13:00.628Z,78.52
2022-10-04T05:14:12.567Z,78.47
2022-10-04T05:15:15.662Z,78.24
2022-10-04T05:16:27.439Z,78.47
2022-10-04T05:17:34.700Z,78.40
2022-10-04T05:18:37.789Z,78.93
2022-10-04T05:19:40.959Z,78.87
2022-10-04T05:20:48.702Z,78.63
2022-10-04T05:21:53.402Z,78.63
2022-10-04T05:22:58.309Z,78.61
2022-10-04T05:24:19.958Z,78.51
2022-10-04T05:25:46.393Z,78.38
2022-10-04T05:26:54.505Z,78.36
2022-10-04T05:27:57.985Z,78.18
2022-10-04T05:29:06.359Z,78.24
2022-10-04T05:30:18.649Z,78.34
2022-10-04T05:31:24.234Z,78.26
2022-10-04T05:32:38.955Z,78.22
2022-10-04T05:33:50.124Z,78.16
2022-10-04T05:34:54.752Z,78.08
2022-10-04T05:36:05.012Z,78.04
2022-10-04T05:37:31.368Z,78.05
2022-10-04T05:38:40.698Z,78.12
2022-10-04T05:39:51.105Z,77.74
2022-10-04T05:41:17.428Z,77.61
2022-10-04T05:42:27.224Z,77.43
2022-10-04T05:43:35.574Z,77.26
2022-10-04T05:44:52.722Z,77.17
2022-10-04T05:46:18.820Z,77.41
2022-10-04T05:47:26.796Z,77.44
2022-10-04T05:48:32.654Z,77.50
2022-10-04T05:49:44.270Z,77.19
2022-10-04T05:50:48.904Z,77.16
2022-10-04T05:51:56.246Z,77.09
2022-10-04T05:53:14.980Z,77.01
2022-10-04T05:54:20.126Z,76.95
2022-10-04T05:55:28.746Z,76.99
2022-10-04T05:57:01.099Z,77.13
2022-10-04T05:58:12.009Z,76.82
2022-10-04T05:59:15.093Z,76.76
2022-10-04T06:00:23.208Z,76.64
2022-10-04T06:01:26.301Z,76.78
2022-10-04T06:02:41.665Z,76.81
2022-10-04T06:04:04.039Z,76.73
2022-10-04T06:05:10.234Z,76.47
2022-10-04T06:06:19.834Z,76.08
2022-10-04T06:07:38.352Z,75.98
2022-10-04T06:09:03.573Z,75.90
2022-10-04T06:10:31.960Z,75.86
2022-10-04T06:11:54.055Z,76.09
2022-10-04T06:13:15.311Z,75.91
2022-10-04T06:14:45.625Z,76.18
2022-10-04T06:16:07.988Z,75.92
2022-10-04T06:17:17.336Z,76.01
2022-10-04T06:18:23.337Z,76.14
2022-10-04T06:19:42.057Z,76.05
2022-10-04T06:20:46.070Z,76.02
2022-10-04T06:22:08.037Z,75.98
2022-10-04T06:23:15.994Z,76.08
2022-10-04T06:24:27.052Z,75.65
2022-10-04T06:25:36.504Z,75.56
2022-10-04T06:26:43.894Z,75.82
2022-10-04T06:27:47.137Z,75.12
2022-10-04T06:28:53.130Z,75.10
2022-10-04T06:30:00.101Z,75.51
2022-10-04T06:31:12.509Z,75.30
2022-10-04T06:32:34.585Z,75.06
2022-10-04T06:33:43.584Z,75.12
2022-10-04T06:34:49.745Z,74.77
2022-10-04T06:36:14.069Z,74.98
2022-10-04T06:37:23.226Z,74.90
2022-10-04T06:38:38.726Z,74.66
2022-10-04T06:39:44.451Z,74.81
2022-10-04T06:41:06.415Z,74.84
2022-10-04T06:42:18.869Z,74.36
2022-10-04T06:43:22.206Z,74.55
2022-10-04T06:44:46.363Z,74.52
2022-10-04T06:46:08.444Z,74.65
2022-10-04T06:47:30.201Z,74.46
2022-10-04T06:48:42.084Z,74.60
2022-10-04T06:49:57.358Z,74.30
2022-10-04T06:51:12.452Z,74.20
2022-10-04T06:52:38.710Z,73.58
2022-10-04T06:53:44.592Z,73.33
2022-10-04T06:55:08.075Z,73.78
2022-10-04T06:56:29.595Z,73.83
2022-10-04T06:57:54.103Z,73.46
2022-10-04T06:59:08.725Z,73.65
2022-10-04T07:00:17.767Z,73.68
2022-10-04T07:01:33.932Z,73.31
2022-10-04T07:02:39.947Z,72.11
2022-10-04T07:03:59.152Z,72.73
2022-10-04T07:05:20.449Z,72.47
2022-10-04T07:06:26.289Z,72.75
2022-10-04T07:07:38.084Z,72.05
2022-10-04T07:08:59.855Z,72.33
2022-10-04T07:10:07.715Z,72.51
2022-10-04T07:11:13.887Z,72.64
2022-10-04T07:12:17.854Z,72.49
2022-10-04T07:13:27.550Z,72.46
2022-10-04T07:14:37.714Z,72.47
2022-10-04T07:15:48.143Z,72.05
2022-10-04T07:16:55.125Z,71.79
2022-10-04T07:17:59.758Z,71.48
2022-10-04T07:19:16.259Z,71.63
2022-10-04T07:20:23.029Z,71.97
2022-10-04T07:21:28.503Z,71.01
2022-10-04T07:22:44.499Z,70.92
2022-10-04T07:23:50.767Z,70.62
2022-10-04T07:24:59.796Z,70.08
2022-10-04T07:26:06.878Z,70.50
2022-10-04T07:27:13.588Z,70.20
2022-10-04T07:28:38.672Z,69.77
2022-10-04T07:29:46.588Z,68.60
2022-10-04T07:30:55.016Z,68.78
2022-10-04T07:32:36.963Z,68.41
2022-10-04T07:33:49.754Z,68.26
2022-10-04T07:34:59.035Z,67.43
2022-10-04T07:36:07.867Z,68.15
2022-10-04T07:37:13.108Z,67.10
2022-10-04T07:38:34.092Z,66.84
2022-10-04T07:40:03.354Z,66.00
2022-10-04T07:41:25.549Z,65.44
2022-10-04T07:42:34.128Z,65.82
2022-10-04T07:43:58.377Z,65.43
2022-10-04T07:45:29.115Z,64.80
2022-10-04T07:46:42.227Z,64.70
2022-10-04T07:47:45.384Z,64.47
2022-10-04T07:48:50.569Z,64.25
2022-10-04T07:49:54.339Z,63.96
2022-10-04T07:51:18.502Z,62.87
2022-10-04T07:52:36.467Z,62.33
2022-10-04T07:53:40.144Z,63.91
2022-10-04T07:54:47.689Z,63.17
2022-10-04T07:55:54.339Z,62.90
2022-10-04T07:57:07.019Z,62.83
2022-10-04T07:58:30.449Z,63.15
2022-10-04T07:59:39.499Z,63.11
2022-10-04T08:00:59.694Z,63.81
2022-10-04T08:02:09.646Z,62.83
2022-10-04T08:03:37.651Z,62.76
2022-10-04T08:05:03.828Z,63.45
2022-10-04T08:13:30.311Z,62.83
2022-10-04T08:14:36.469Z,62.02
2022-10-04T08:15:42.311Z,62.07
2022-10-04T08:16:51.300Z,60.76
2022-10-04T08:18:03.745Z,61.92
2022-10-04T08:19:07.052Z,61.40
2022-10-04T08:20:29.010Z,60.71
2022-10-04T08:21:37.998Z,60.32
2022-10-04T08:23:10.307Z,60.55
2022-10-04T08:24:33.866Z,60.08
2022-10-04T08:25:46.518Z,60.92
2022-10-04T08:26:56.105Z,60.05
2022-10-04T08:28:22.446Z,61.10
2022-10-04T08:29:58.612Z,60.35
2022-10-04T08:31:09.487Z,61.08
2022-10-04T08:32:12.642Z,60.01
2022-10-04T08:33:28.285Z,60.57
2022-10-04T08:34:42.389Z,59.68
2022-10-04T08:35:56.303Z,59.04
2022-10-04T08:36:59.862Z,58.70
2022-10-04T08:38:23.269Z,58.12
2022-10-04T08:39:35.696Z,59.25
2022-10-04T08:40:51.090Z,59.29
2022-10-04T08:42:08.885Z,58.81
2022-10-04T08:43:14.555Z,57.56
2022-10-04T08:44:40.840Z,56.87
2022-10-04T08:46:04.244Z,56.78
2022-10-04T08:47:10.889Z,57.10
2022-10-04T08:48:34.183Z,56.96
2022-10-04T08:49:52.473Z,56.60
2022-10-04T08:50:55.474Z,56.63
2022-10-04T08:52:17.484Z,55.28
2022-10-04T08:53:26.877Z,53.09
2022-10-04T08:54:30.061Z,52.37
2022-10-04T08:55:37.468Z,53.71
2022-10-04T08:56:46.873Z,53.30
2022-10-04T08:57:56.312Z,52.71
2022-10-04T08:59:18.489Z,52.74
2022-10-04T09:00:33.549Z,52.18
2022-10-04T09:01:39.705Z,52.63
2022-10-04T09:02:58.118Z,52.81
2022-10-04T09:04:15.111Z,54.19
2022-10-04T09:05:38.354Z,54.23
2022-10-04T09:06:56.839Z,54.05
2022-10-04T09:08:04.671Z,53.31
2022-10-04T09:09:27.946Z,54.05
2022-10-04T09:10:45.807Z,53.18
2022-10-04T09:12:14.338Z,53.76
2022-10-04T09:13:31.188Z,53.23
2022-10-04T09:14:51.419Z,53.48
2022-10-04T09:15:58.138Z,52.29
2022-10-04T09:17:22.327Z,51.52
2022-10-04T09:18:35.054Z,50.77
2022-10-04T09:19:52.884Z,50.95
2022-10-04T09:21:04.805Z,51.10
2022-10-04T09:22:11.755Z,50.85
2022-10-04T09:23:23.966Z,51.15
2022-10-04T09:24:30.107Z,50.79
2022-10-04T09:25:42.334Z,51.20
2022-10-04T09:26:56.029Z,52.00
2022-10-04T09:27:59.214Z,50.78
2022-10-04T09:29:20.960Z,50.86
2022-10-04T09:30:33.352Z,50.44
2022-10-04T09:31:56.534Z,50.36
2022-10-04T09:33:02.546Z,51.02
2022-10-04T09:34:05.838Z,51.08
2022-10-04T09:35:24.728Z,50.71
2022-10-04T09:36:40.791Z,51.56
2022-10-04T09:37:53.238Z,52.16
2022-10-04T09:39:17.923Z,51.78
2022-10-04T09:40:24.454Z,51.62
2022-10-04T09:41:40.400Z,51.19
2022-10-04T09:43:02.222Z,51.81
2022-10-04T09:44:16.925Z,52.03
2022-10-04T09:45:21.749Z,52.36
2022-10-04T09:46:30.519Z,52.57
2022-10-04T09:47:45.225Z,52.79
2022-10-04T09:49:06.424Z,53.12
2022-10-04T09:50:30.183Z,52.09
2022-10-04T09:51:54.809Z,51.86
2022-10-04T09:53:00.823Z,51.62
2022-10-04T09:54:22.577Z,52.40
2022-10-04T09:55:36.200Z,51.35
2022-10-04T09:56:46.418Z,51.13
2022-10-04T09:58:07.559Z,50.03
2022-10-04T09:59:32.749Z,50.25
2022-10-04T10:00:43.587Z,48.43
2022-10-04T10:01:52.575Z,48.61
2022-10-04T10:03:16.119Z,48.47
2022-10-04T10:04:24.265Z,47.09
2022-10-04T10:05:49.646Z,45.35
2022-10-04T10:06:58.429Z,44.90
2022-10-04T10:08:08.571Z,44.88
2022-10-04T10:09:43.539Z,46.09
2022-10-04T10:11:24.434Z,45.23
2022-10-04T10:12:49.513Z,45.69
2022-10-04T10:14:11.044Z,46.18
2022-10-04T10:15:23.374Z,46.37
2022-10-04T10:16:47.264Z,46.81
2022-10-04T10:17:57.673Z,46.88
2022-10-04T10:19:08.640Z,45.66
2022-10-04T10:20:20.313Z,45.70
2022-10-04T10:21:38.588Z,45.54
2022-10-04T10:22:47.689Z,42.86
2022-10-04T10:24:13.234Z,42.15
2022-10-04T10:25:36.497Z,41.70
2022-10-04T10:26:58.466Z,39.61
2022-10-04T10:28:20.147Z,38.36
2022-10-04T10:29:31.654Z,39.01
2022-10-04T10:30:41.283Z,39.83
2022-10-04T10:31:51.509Z,39.44
2022-10-04T10:33:03.521Z,41.38
2022-10-04T10:34:06.657Z,41.15
2022-10-04T10:35:28.274Z,41.44
2022-10-04T10:37:02.544Z,39.98
2022-10-04T10:38:08.393Z,39.65
2022-10-04T10:39:12.329Z,38.61
2022-10-04T10:40:34.266Z,39.11
2022-10-04T10:41:37.490Z,39.28
2022-10-04T10:42:49.475Z,39.22
2022-10-04T10:44:08.264Z,40.46
2022-10-04T10:45:29.629Z,41.00
2022-10-04T10:46:52.172Z,41.00
2022-10-04T10:48:15.519Z,40.64
2022-10-04T10:49:37.326Z,40.50
2022-10-04T10:50:59.378Z,40.98
2022-10-04T10:52:06.379Z,41.33
2022-10-04T10:53:20.438Z,40.94
2022-10-04T10:54:32.310Z,41.90
2022-10-04T10:56:08.674Z,42.59
2022-10-04T10:57:14.691Z,42.18
2022-10-04T10:58:29.667Z,41.63
2022-10-04T10:59:53.304Z,42.47
2022-10-04T11:00:57.947Z,43.01
2022-10-04T11:02:15.611Z,43.47
2022-10-04T11:03:33.675Z,43.42
2022-10-04T11:04:54.958Z,43.20
2022-10-04T11:06:27.314Z,42.61
2022-10-04T11:07:33.263Z,43.06
2022-10-04T11:09:00.760Z,43.44
2022-10-04T11:10:23.311Z,43.69
2022-10-04T11:11:39.458Z,43.74
2022-10-04T11:12:48.046Z,43.71
2022-10-04T11:13:54.359Z,43.96
2022-10-04T11:15:09.246Z,44.56
2022-10-04T11:16:32.154Z,44.57
2022-10-04T11:17:43.993Z,44.33
2022-10-04T11:19:06.586Z,44.33
2022-10-04T11:20:26.942Z,43.74
2022-10-04T11:21:30.223Z,42.47
2022-10-04T11:22:44.957Z,42.64
2022-10-04T11:23:59.645Z,42.90
2022-10-04T11:25:25.332Z,43.58
2022-10-04T11:26:46.914Z,44.03
2022-10-04T11:27:58.545Z,44.54
2022-10-04T11:29:10.365Z,44.09
2022-10-04T11:30:17.027Z,43.75
2022-10-04T11:31:48.039Z,43.61
2022-10-04T11:33:09.755Z,44.54
2022-10-04T11:34:30.814Z,44.70
2022-10-04T11:35:44.656Z,44.13
2022-10-04T11:36:51.120Z,43.98
2022-10-04T11:38:05.108Z,43.19
2022-10-04T11:39:20.344Z,44.34
2022-10-04T11:40:46.712Z,44.17
2022-10-04T11:42:00.726Z,44.16
2022-10-04T11:43:22.954Z,43.31
2022-10-04T11:44:44.354Z,44.15
2022-10-04T11:46:10.531Z,41.37
2022-10-04T11:47:31.268Z,43.23
2022-10-04T11:48:53.600Z,43.22
2022-10-04T11:50:26.265Z,43.99
2022-10-04T11:51:32.310Z,43.52
2022-10-04T11:52:48.614Z,43.36
2022-10-04T11:54:04.773Z,43.24
2022-10-04T11:55:10.541Z,44.05
2022-10-04T11:56:22.503Z,44.09
2022-10-04T11:57:34.068Z,44.37
2022-10-04T11:58:56.125Z,44.32
2022-10-04T11:59:59.179Z,43.88
2022-10-04T12:01:22.509Z,44.07
2022-10-04T12:02:39.666Z,44.03
2022-10-04T12:04:01.682Z,44.04
2022-10-04T12:05:29.444Z,43.87
2022-10-04T12:06:38.221Z,43.64
2022-10-04T12:07:41.255Z,43.26
2022-10-04T12:08:49.160Z,43.09
2022-10-04T12:10:02.676Z,42.84
2022-10-04T12:11:24.153Z,41.50
2022-10-04T12:12:39.465Z,40.06
2022-10-04T12:13:56.728Z,40.85
2022-10-04T12:15:08.583Z,40.29
2022-10-04T12:16:32.442Z,40.59
2022-10-04T12:17:51.115Z,39.84
2022-10-04T12:19:15.713Z,38.87
2022-10-04T12:20:21.087Z,40.04
2022-10-04T12:21:29.902Z,37.92
2022-10-04T12:22:53.195Z,39.66
2022-10-04T12:24:14.767Z,39.57
2022-10-04T12:25:36.593Z,38.11
2022-10-04T12:26:39.870Z,38.64
2022-10-04T12:27:53.543Z,37.65
2022-10-04T12:29:15.676Z,37.39
2022-10-04T12:30:21.643Z,37.80
2022-10-04T12:31:28.837Z,36.88
2022-10-04T12:32:42.027Z,36.62
2022-10-04T12:33:49.568Z,36.68
2022-10-04T12:35:11.899Z,37.69
2022-10-04T12:36:27.108Z,38.22
2022-10-04T12:37:38.359Z,36.72
2022-10-04T12:39:07.847Z,36.61
2022-10-04T12:40:13.439Z,35.88
2022-10-04T12:41:35.049Z,36.74
2022-10-04T12:42:55.104Z,37.31
2022-10-04T12:44:14.889Z,36.01
2022-10-04T12:45:35.026Z,36.00
2022-10-04T12:46:37.956Z,35.76
2022-10-04T12:47:56.021Z,35.62
2022-10-04T12:49:19.065Z,34.77
2022-10-04T12:50:40.825Z,32.97
2022-10-04T12:51:51.091Z,33.28
2022-10-04T12:52:59.897Z,34.98
2022-10-04T12:54:11.979Z,32.08
2022-10-04T12:55:21.176Z,33.00
2022-10-04T12:56:37.413Z,33.40
2022-10-04T12:58:08.179Z,32.26
2022-10-04T12:59:17.261Z,32.63
2022-10-04T13:00:25.214Z,32.47
2022-10-04T13:01:37.779Z,32.05
2022-10-04T13:02:48.058Z,33.20
2022-10-04T13:03:55.783Z,32.84
2022-10-04T13:04:59.465Z,33.19
2022-10-04T13:06:20.872Z,32.72
2022-10-04T13:07:33.018Z,32.24
2022-10-04T13:08:54.675Z,33.53
2022-10-04T13:10:30.167Z,34.20
2022-10-04T13:11:52.594Z,34.57
2022-10-04T13:13:25.834Z,34.78
2022-10-04T13:14:33.808Z,34.64
2022-10-04T13:17:33.854Z,34.85
2022-10-04T13:19:10.463Z,35.02
2022-10-04T13:20:16.672Z,34.75
2022-10-04T13:21:38.234Z,35.52
2022-10-04T13:23:02.404Z,35.90
2022-10-04T13:24:19.701Z,35.57
2022-10-04T13:25:38.186Z,35.93
2022-10-04T13:26:51.799Z,35.58
2022-10-04T13:28:06.107Z,35.42
2022-10-04T13:29:11.893Z,35.97
2022-10-04T13:30:23.552Z,36.19
2022-10-04T13:31:50.292Z,36.55
2022-10-04T13:33:12.571Z,37.09
2022-10-04T13:34:20.488Z,37.16
2022-10-04T13:35:26.195Z,36.93
2022-10-04T13:37:05.563Z,37.30
2022-10-04T13:40:25.930Z,37.53
2022-10-04T13:41:31.064Z,37.70
2022-10-04T13:42:34.472Z,37.30
2022-10-04T13:43:56.312Z,37.87
2022-10-04T13:45:18.611Z,38.26
2022-10-04T13:46:40.536Z,38.42
2022-10-04T13:47:46.759Z,38.74
2022-10-04T13:48:53.547Z,39.18
2022-10-04T13:50:02.736Z,39.60
2022-10-04T13:51:18.289Z,39.88
2022-10-04T13:52:58.762Z,40.01
2022-10-04T13:54:48.455Z,40.40
2022-10-04T13:56:18.644Z,40.91
2022-10-04T13:57:29.968Z,41.03
2022-10-04T13:58:53.692Z,41.01
2022-10-04T14:00:03.193Z,40.78
2022-10-04T14:01:26.522Z,40.72
2022-10-04T14:02:48.780Z,40.61
2022-10-04T14:04:07.372Z,40.54
2022-10-04T14:05:25.143Z,40.59
2022-10-04T14:06:34.247Z,41.44
2022-10-04T14:07:56.256Z,42.15
2022-10-04T14:09:17.863Z,42.88
2022-10-04T14:10:26.194Z,43.57
2022-10-04T14:11:41.998Z,43.95
2022-10-04T14:13:17.183Z,44.41
2022-10-04T14:14:33.526Z,44.82
2022-10-04T14:15:51.129Z,44.87
2022-10-04T14:17:12.935Z,45.21
2022-10-04T14:18:49.455Z,45.86
2022-10-04T14:19:58.293Z,45.74
2022-10-04T14:21:04.387Z,45.58
2022-10-04T14:22:23.299Z,45.64
2022-10-04T14:23:40.750Z,45.79
2022-10-04T14:24:54.664Z,45.89
2022-10-04T14:26:00.659Z,45.80
2022-10-04T14:27:22.554Z,45.86
2022-10-04T14:28:26.493Z,46.03
2022-10-04T14:29:36.870Z,46.16
2022-10-04T14:30:39.901Z,46.44
2022-10-04T14:31:52.365Z,46.67
2022-10-04T14:32:58.320Z,46.83
2022-10-04T14:34:20.413Z,47.15
2022-10-04T14:35:29.664Z,47.46
2022-10-04T14:36:51.325Z,47.55
2022-10-04T14:38:00.454Z,47.78
2022-10-04T14:39:03.886Z,47.73
2022-10-04T14:40:10.252Z,47.53
2022-10-04T14:41:19.102Z,47.51
2022-10-04T14:43:00.936Z,47.58
2022-10-04T14:44:07.384Z,47.54
2022-10-04T14:45:33.002Z,47.02
2022-10-04T14:46:36.471Z,46.84
2022-10-04T14:47:43.096Z,46.67
2022-10-04T14:48:49.190Z,46.50
2022-10-04T14:50:00.359Z,46.56
2022-10-04T14:51:26.733Z,47.10
2022-10-04T14:52:36.287Z,47.53
2022-10-04T14:53:51.798Z,47.71
2022-10-04T14:55:07.425Z,47.70
2022-10-04T14:56:16.092Z,47.55
2022-10-04T14:57:21.086Z,47.79
2022-10-04T14:58:43.233Z,47.97
2022-10-04T14:59:53.741Z,48.23
2022-10-04T15:01:02.927Z,48.41
2022-10-04T15:02:24.701Z,48.69
2022-10-04T15:03:30.759Z,48.97
2022-10-04T15:04:49.178Z,49.05
2022-10-04T15:06:00.371Z,49.21
2022-10-04T15:07:16.120Z,49.16
2022-10-04T15:08:21.749Z,49.27
2022-10-04T15:09:50.497Z,49.22
2022-10-04T15:10:59.677Z,49.16
2022-10-04T15:12:58.367Z,49.18
2022-10-04T15:13:58.852Z,49.30
2022-10-04T15:15:13.641Z,49.65
2022-10-04T15:16:16.921Z,49.98
2022-10-04T15:17:27.533Z,50.00
2022-10-04T15:18:39.551Z,50.09
2022-10-04T15:19:49.942Z,50.59
2022-10-04T15:21:05.049Z,50.57
2022-10-04T15:22:14.938Z,50.26
2022-10-04T15:23:30.891Z,50.34
2022-10-04T15:24:43.684Z,50.25
2022-10-04T15:25:48.415Z,50.32
2022-10-04T15:27:10.481Z,50.35
2022-10-04T15:28:33.125Z,50.69
2022-10-04T15:29:53.699Z,50.41
2022-10-04T15:31:01.181Z,50.51
2022-10-04T15:32:16.935Z,50.84
2022-10-04T15:33:25.916Z,51.04
2022-10-04T15:34:34.732Z,50.98
2022-10-04T15:35:40.977Z,50.96
2022-10-04T15:36:49.703Z,51.05
2022-10-04T15:37:58.559Z,51.00
2022-10-04T15:39:06.679Z,51.14
2022-10-04T15:40:25.512Z,51.09
2022-10-04T15:41:45.999Z,51.14
2022-10-04T15:43:04.391Z,51.25
2022-10-04T15:44:15.342Z,51.36
2022-10-04T15:45:50.680Z,51.45
2022-10-04T15:46:59.443Z,51.85
2022-10-04T15:48:13.374Z,51.86
2022-10-04T15:49:37.014Z,52.10